Aeroporto :
LOGIN :

Iscrizione | Disclaimer

   EN    FR    IT 

 










Sommario :    VFR   VFR Marginale   IFR   IFR Intensivo   IFR Molto Intensivo
Visibilità : 
Base nubi : 
>= 8 km
>= 3000ft
5 / 8 km
1000 / 3000 ft
1500m / 5 km
500 / 1000 ft
800 / 1500m
200 / 500 ft
< 800m
< 200 ft
Simboli :   Temporali  Nebbia  Neve Forte  Precipitazioni Forti  Vento > 20 kt
SIGMETs :   Varie  Temporali  Ghiacco  Turbolenza  Onda orograficha  Ceneri Vulcaniche







- Altitudine del aeroporto : 526 ft
- Codice IATA : LTN
- Carte del aeroporto


EGGW - London Luton

ULTIMO METAR :
  • 172120Z AUTO 08009KT 7000 NCD 05/05 Q1028

METARs OBSOLETI :
  • 172050Z AUTO 07008KT 7000 NCD 05/04 Q1027
  • 172020Z AUTO 07007KT 7000 NCD 05/05 Q1027
  • 171950Z AUTO 08008KT 8000 NCD 06/05 Q1027
  • 171920Z AUTO 08008KT 8000 NCD 06/05 Q1027
  • 171850Z AUTO 08009KT 8000 NCD 06/05 Q1027

TAF TAF EGGW
Valido dal 17 a 18 ore il 18 a 18 ore UTC


171654Z 1718/1818 09009KT CAVOK
PROB40 1718/1810 6000
ATIS : +44 1582 395 204
Nessun NOTAM noto per questo aeroporto.
1 SIGMET conosciuto per la FIR London (EGTT) :
 
Turbolenza severa
EGTT SIGMET 01 VALID 172035/180030 EGRR
EGTT LONDON FIR SEV TURB FCST S OF LINE N5110 E00200 - N4934 W00800 SFC/FL060 STNR NC=



MetMap, La meteo Aeronautica in un colpo d'occhio ! - Copyright ORBIFLY Dicembre 2007 - Disclaimer

ORBIFLY MET'MAP TEAM :

Programmazione e sviluppo : Alexandra Zaïnal
Concezione e sviluppo : Baudouin d'Aumeries
Co-Programmazione e sviluppo : Marc-Olivier Méhu
Supporto tecnico e logistico : Manuel Goepfert
Aiuto per la traduzione : Arnaldo La Scala

Contatto : metmap@orbifly.com




FONTI E CREDITI :

   NOAA